Time,TemperatureF,DewpointF,PressureIn,WindDirection,WindDirectionDegrees,WindSpeedMPH,WindSpeedGustMPH,Humidity,HourlyPrecipIn,Conditions,Clouds,dailyrainin,SoftwareType,DateUTC
2013-02-18 07:05:00,20.8,16.2,29.96,ENE,68,0.0,0.0,82,0.00,,---,0.00,VWS V14.01,2013-02-18 14:05:00,
2013-02-18 07:17:00,20.6,16.0,29.97,ENE,76,0.0,0.0,82,0.00,,---,0.00,VWS V14.01,2013-02-18 14:17:00,
2013-02-18 07:22:00,20.5,15.9,29.97,ENE,76,0.0,0.0,82,0.00,,---,0.00,VWS V14.01,2013-02-18 14:22:00,
2013-02-18 07:27:00,20.6,16.0,29.97,ENE,76,0.0,0.0,82,0.00,,---,0.00,VWS V14.01,2013-02-18 14:27:00,
2013-02-18 07:32:00,20.4,15.8,29.98,ENE,76,0.0,0.0,82,0.00,,---,0.00,VWS V14.01,2013-02-18 14:32:00,
2013-02-18 07:37:00,20.5,15.9,29.98,ENE,76,0.0,1.0,82,0.00,,---,0.00,VWS V14.01,2013-02-18 14:37:00,
2013-02-18 07:42:00,20.6,16.0,29.98,ENE,76,0.0,0.0,82,0.00,,---,0.00,VWS V14.01,2013-02-18 14:42:00,
2013-02-18 07:47:00,21.1,16.8,29.98,ENE,76,0.0,0.0,83,0.00,,---,0.00,VWS V14.01,2013-02-18 14:47:00,
2013-02-18 07:52:00,21.6,17.2,29.97,ENE,75,0.0,0.0,83,0.00,,---,0.00,VWS V14.01,2013-02-18 14:52:00,
2013-02-18 07:57:00,22.1,17.5,29.97,ENE,75,0.0,0.0,82,0.00,,---,0.00,VWS V14.01,2013-02-18 14:57:00,
2013-02-18 08:02:00,22.8,18.1,29.98,ENE,76,0.0,0.0,82,0.00,,---,0.00,VWS V14.01,2013-02-18 15:02:00,
2013-02-18 08:07:00,23.8,18.5,30.00,ENE,75,0.0,0.0,80,0.00,,---,0.00,VWS V14.01,2013-02-18 15:07:00,
2013-02-18 08:12:00,24.0,17.9,30.00,ENE,76,0.0,0.0,77,0.00,,---,0.00,VWS V14.01,2013-02-18 15:12:00,
2013-02-18 08:17:00,24.1,17.6,30.00,ENE,76,1.0,5.0,76,0.00,,---,0.00,VWS V14.01,2013-02-18 15:17:00,
2013-02-18 08:22:00,23.9,17.1,30.00,ENE,75,0.0,2.0,75,0.00,,---,0.00,VWS V14.01,2013-02-18 15:22:00,
2013-02-18 08:27:00,23.5,16.1,30.01,ENE,76,3.0,5.0,73,0.00,,---,0.00,VWS V14.01,2013-02-18 15:27:00,
2013-02-18 08:32:00,22.9,13.3,30.03,NE,41,4.0,6.0,66,0.00,,---,0.00,VWS V14.01,2013-02-18 15:32:00,
2013-02-18 08:37:00,23.0,11.9,30.03,NNW,347,13.0,13.0,62,0.00,,---,0.00,VWS V14.01,2013-02-18 15:37:00,
2013-02-18 08:42:00,23.2,10.6,30.03,NNW,344,10.0,12.0,58,0.00,,---,0.00,VWS V14.01,2013-02-18 15:42:00,
2013-02-18 08:47:00,23.3,9.9,30.04,NNW,343,4.0,9.0,56,0.00,,---,0.00,VWS V14.01,2013-02-18 15:47:00,
2013-02-18 08:52:00,23.5,9.7,30.04,NNW,342,4.0,7.0,55,0.00,,---,0.00,VWS V14.01,2013-02-18 15:52:00,
2013-02-18 08:57:00,24.0,9.4,30.02,NNW,343,9.0,10.0,53,0.00,,---,0.00,VWS V14.01,2013-02-18 15:57:00,
2013-02-18 09:02:00,23.9,8.0,30.01,NNW,342,7.0,12.0,50,0.00,,---,0.00,VWS V14.01,2013-02-18 16:02:00,
2013-02-18 09:07:00,23.9,8.0,30.04,NNW,341,7.0,7.0,50,0.00,,---,0.00,VWS V14.01,2013-02-18 16:07:00,
2013-02-18 09:13:00,24.1,7.3,30.04,NNW,340,12.0,12.0,48,0.00,,---,0.00,VWS V14.01,2013-02-18 16:13:00,
2013-02-18 09:18:00,24.7,7.8,30.03,NNW,340,0.0,8.0,48,0.00,,---,0.00,VWS V14.01,2013-02-18 16:18:00,
2013-02-18 09:23:00,25.2,6.8,30.04,NNW,340,3.0,12.0,45,0.00,,---,0.00,VWS V14.01,2013-02-18 16:23:00,
2013-02-18 09:28:00,25.2,6.4,30.04,NNW,336,5.0,11.0,44,0.00,,---,0.00,VWS V14.01,2013-02-18 16:28:00,
2013-02-18 09:33:00,25.3,3.8,30.04,NNW,337,9.0,19.0,39,0.00,,---,0.00,VWS V14.01,2013-02-18 16:33:00,
2013-02-18 09:38:00,25.6,3.5,30.02,NNW,340,19.0,20.0,38,0.00,,---,0.00,VWS V14.01,2013-02-18 16:38:00,
2013-02-18 09:43:00,25.7,3.0,30.02,NNW,341,13.0,16.0,37,0.01,,---,0.01,VWS V14.01,2013-02-18 16:43:00,
2013-02-18 09:48:00,25.7,1.9,30.02,NNW,330,10.0,23.0,35,0.01,,---,0.01,VWS V14.01,2013-02-18 16:48:00,
2013-02-18 09:53:00,26.0,2.7,30.02,WNW,302,9.0,21.0,36,0.01,,---,0.01,VWS V14.01,2013-02-18 16:53:00,
2013-02-18 09:58:00,26.2,2.3,30.02,NNW,340,15.0,22.0,35,0.01,,---,0.01,VWS V14.01,2013-02-18 16:58:00,
2013-02-18 10:03:00,26.4,1.9,30.02,NNW,342,13.0,20.0,34,0.01,,---,0.01,VWS V14.01,2013-02-18 17:03:00,
2013-02-18 10:08:00,26.6,2.0,29.97,NNW,342,19.0,20.0,34,0.01,,---,0.01,VWS V14.01,2013-02-18 17:08:00,
2013-02-18 10:13:00,26.6,1.4,29.98,NNW,344,11.0,20.0,33,0.01,,---,0.01,VWS V14.01,2013-02-18 17:13:00,
2013-02-18 10:18:00,26.8,1.6,29.97,NNW,338,7.0,14.0,33,0.01,,---,0.01,VWS V14.01,2013-02-18 17:18:00,
2013-02-18 10:23:00,27.2,3.2,29.98,NNW,333,12.0,14.0,35,0.01,,---,0.01,VWS V14.01,2013-02-18 17:23:00,
2013-02-18 10:28:00,27.5,2.2,29.98,NE,36,0.0,8.0,33,0.01,,---,0.01,VWS V14.01,2013-02-18 17:28:00,
2013-02-18 10:33:00,27.9,3.2,29.98,North,349,3.0,8.0,34,0.01,,---,0.01,VWS V14.01,2013-02-18 17:33:00,
2013-02-18 10:38:00,28.0,2.6,29.98,NNW,340,0.0,11.0,33,0.01,,---,0.01,VWS V14.01,2013-02-18 17:38:00,
2013-02-18 10:43:00,28.4,0.2,29.95,North,350,12.0,19.0,29,0.01,,---,0.01,VWS V14.01,2013-02-18 17:43:00,
2013-02-18 10:48:00,28.4,0.2,29.97,NNW,334,6.0,13.0,29,0.00,,---,0.01,VWS V14.01,2013-02-18 17:48:00,
2013-02-18 10:53:00,28.5,-0.4,29.96,NNW,342,9.0,12.0,28,0.00,,---,0.01,VWS V14.01,2013-02-18 17:53:00,
2013-02-18 10:58:00,28.8,0.6,29.96,NNW,332,6.0,15.0,29,0.00,,---,0.01,VWS V14.01,2013-02-18 17:58:00,
2013-02-18 11:03:00,28.7,-0.3,29.96,North,355,0.0,13.0,28,0.00,,---,0.01,VWS V14.01,2013-02-18 18:03:00,
2013-02-18 11:08:00,28.9,-1.7,30.03,NW,325,11.0,13.0,26,0.00,,---,0.01,VWS V14.01,2013-02-18 18:08:00,
2013-02-18 11:13:00,29.2,-1.4,30.03,North,355,0.0,14.0,26,0.00,,---,0.01,VWS V14.01,2013-02-18 18:13:00,
2013-02-18 11:18:00,30.1,-0.6,30.01,NE,56,8.0,11.0,26,0.00,,---,0.01,VWS V14.01,2013-02-18 18:18:00,
2013-02-18 11:23:00,29.7,-2.7,30.01,NNW,331,6.0,11.0,24,0.00,,---,0.01,VWS V14.01,2013-02-18 18:23:00,
2013-02-18 11:28:00,29.6,-1.9,30.01,NNW,334,10.0,14.0,25,0.00,,---,0.01,VWS V14.01,2013-02-18 18:28:00,
2013-02-18 11:33:00,29.9,-1.6,30.01,NE,37,2.0,11.0,25,0.00,,---,0.01,VWS V14.01,2013-02-18 18:33:00,
2013-02-18 11:38:00,30.2,-2.2,30.01,ENE,70,6.0,12.0,24,0.00,,---,0.01,VWS V14.01,2013-02-18 18:38:00,
2013-02-18 11:43:00,30.6,-1.0,30.01,NNE,26,1.0,9.0,25,0.00,,---,0.01,VWS V14.01,2013-02-18 18:43:00,
2013-02-18 11:48:00,31.5,0.6,30.01,NNW,343,1.0,5.0,26,0.00,,---,0.01,VWS V14.01,2013-02-18 18:48:00,
2013-02-18 11:53:00,31.5,-0.3,29.98,ENE,57,2.0,9.0,25,0.00,,---,0.01,VWS V14.01,2013-02-18 18:53:00,
2013-02-18 11:58:00,31.3,-0.4,30.00,NNW,338,0.0,11.0,25,0.00,,---,0.01,VWS V14.01,2013-02-18 18:58:00,
2013-02-18 12:03:00,31.6,-0.2,29.98,NNE,26,1.0,6.0,25,0.00,,---,0.01,VWS V14.01,2013-02-18 19:03:00,
2013-02-18 12:08:00,31.5,-0.3,29.96,NW,305,7.0,11.0,25,0.00,,---,0.01,VWS V14.01,2013-02-18 19:08:00,
2013-02-18 12:13:00,31.5,0.6,29.97,WNW,296,1.0,7.0,26,0.00,,---,0.01,VWS V14.01,2013-02-18 19:13:00,
2013-02-18 12:18:00,31.5,-0.3,29.96,WNW,295,2.0,6.0,25,0.00,,---,0.01,VWS V14.01,2013-02-18 19:18:00,
2013-02-18 12:23:00,31.5,-1.1,29.96,NW,320,0.0,4.0,24,0.00,,---,0.01,VWS V14.01,2013-02-18 19:23:00,
2013-02-18 12:28:00,31.3,-1.3,29.97,NW,317,0.0,6.0,24,0.00,,---,0.01,VWS V14.01,2013-02-18 19:28:00,
2013-02-18 12:33:00,31.4,-0.3,29.97,WNW,292,4.0,7.0,25,0.00,,---,0.01,VWS V14.01,2013-02-18 19:33:00,
2013-02-18 12:38:00,31.7,-0.1,29.95,NNW,333,2.0,9.0,25,0.00,,---,0.01,VWS V14.01,2013-02-18 19:38:00,
2013-02-18 12:43:00,32.5,1.4,29.95,NNW,333,2.0,4.0,26,0.00,,---,0.01,VWS V14.01,2013-02-18 19:43:00,
2013-02-18 12:48:00,32.9,0.1,29.95,NW,312,2.0,7.0,24,0.00,,---,0.01,VWS V14.01,2013-02-18 19:48:00,
2013-02-18 12:53:00,32.2,-0.5,29.95,NW,309,1.0,6.0,24,0.00,,---,0.01,VWS V14.01,2013-02-18 19:53:00,
2013-02-18 12:58:00,32.7,0.8,29.95,WNW,289,5.0,8.0,25,0.00,,---,0.01,VWS V14.01,2013-02-18 19:58:00,
2013-02-18 13:03:00,32.9,0.9,29.95,NW,306,3.0,8.0,25,0.00,,---,0.01,VWS V14.01,2013-02-18 20:03:00,
2013-02-18 13:08:00,33.5,-0.3,29.95,NNW,341,1.0,4.0,23,0.00,,---,0.01,VWS V14.01,2013-02-18 20:08:00,
2013-02-18 13:14:00,33.2,-0.6,29.94,NNW,331,8.0,8.0,23,0.00,,---,0.01,VWS V14.01,2013-02-18 20:14:00,
2013-02-18 13:19:00,33.0,1.0,29.94,NNW,338,0.0,5.0,25,0.00,,---,0.01,VWS V14.01,2013-02-18 20:19:00,
2013-02-18 13:24:00,33.7,0.8,29.94,NNW,343,15.0,15.0,24,0.00,,---,0.01,VWS V14.01,2013-02-18 20:24:00,
2013-02-18 13:29:00,33.0,0.2,29.94,NW,309,10.0,13.0,24,0.00,,---,0.01,VWS V14.01,2013-02-18 20:29:00,
2013-02-18 13:34:00,32.9,0.1,29.93,WNW,292,9.0,9.0,24,0.00,,---,0.01,VWS V14.01,2013-02-18 20:34:00,
2013-02-18 13:39:00,33.1,0.2,29.94,WNW,298,9.0,13.0,24,0.00,,---,0.01,VWS V14.01,2013-02-18 20:39:00,
2013-02-18 13:44:00,33.1,0.2,29.94,NW,305,4.0,11.0,24,0.00,,---,0.01,VWS V14.01,2013-02-18 20:44:00,
2013-02-18 13:49:00,33.8,-0.1,29.94,WNW,289,6.0,9.0,23,0.00,,---,0.01,VWS V14.01,2013-02-18 20:49:00,
2013-02-18 13:54:00,33.4,-0.4,29.94,WNW,299,6.0,11.0,23,0.00,,---,0.01,VWS V14.01,2013-02-18 20:54:00,
2013-02-18 13:59:00,33.5,0.6,29.93,NNW,334,5.0,10.0,24,0.00,,---,0.01,VWS V14.01,2013-02-18 20:59:00,
2013-02-18 14:04:00,33.4,-0.4,29.93,NNW,327,10.0,15.0,23,0.00,,---,0.01,VWS V14.01,2013-02-18 21:04:00,
2013-02-18 14:09:00,33.3,-0.5,29.93,NW,309,9.0,12.0,23,0.00,,---,0.01,VWS V14.01,2013-02-18 21:09:00,
2013-02-18 14:14:00,33.7,-0.2,29.92,NW,304,4.0,19.0,23,0.00,,---,0.01,VWS V14.01,2013-02-18 21:14:00,
2013-02-18 14:19:00,34.4,0.4,29.92,WNW,292,5.0,10.0,23,0.00,,---,0.01,VWS V14.01,2013-02-18 21:19:00,
2013-02-18 14:24:00,34.4,-0.5,29.91,NW,311,5.0,14.0,22,0.00,,---,0.01,VWS V14.01,2013-02-18 21:24:00,
2013-02-18 14:29:00,34.1,0.2,29.92,North,349,15.0,19.0,23,0.00,,---,0.01,VWS V14.01,2013-02-18 21:29:00,
2013-02-18 14:34:00,34.4,1.4,29.91,NNW,334,5.0,15.0,24,0.00,,---,0.01,VWS V14.01,2013-02-18 21:34:00,
2013-02-18 14:39:00,34.8,-0.2,29.91,NE,34,6.0,13.0,22,0.00,,---,0.01,VWS V14.01,2013-02-18 21:39:00,
2013-02-18 14:44:00,35.1,1.0,29.91,ENE,57,0.0,15.0,23,0.00,,---,0.01,VWS V14.01,2013-02-18 21:44:00,
2013-02-18 14:49:00,34.8,0.8,29.91,NNW,336,11.0,14.0,23,0.00,,---,0.01,VWS V14.01,2013-02-18 21:49:00,
2013-02-18 14:54:00,34.6,-0.3,29.92,NNW,336,10.0,14.0,22,0.00,,---,0.01,VWS V14.01,2013-02-18 21:54:00,
2013-02-18 14:59:00,34.8,1.7,29.91,NNE,22,2.0,14.0,24,0.00,,---,0.01,VWS V14.01,2013-02-18 21:59:00,
2013-02-18 15:04:00,35.0,0.0,29.91,NNW,331,11.0,14.0,22,0.00,,---,0.01,VWS V14.01,2013-02-18 22:04:00,
2013-02-18 15:09:00,35.3,1.2,29.97,NNW,347,7.0,14.0,23,0.00,,---,0.01,VWS V14.01,2013-02-18 22:09:00,
2013-02-18 15:14:00,35.4,1.3,29.97,NNW,340,12.0,15.0,23,0.00,,---,0.01,VWS V14.01,2013-02-18 22:14:00,
2013-02-18 15:19:00,34.9,-0.1,29.98,NW,324,9.0,18.0,22,0.00,,---,0.01,VWS V14.01,2013-02-18 22:19:00,
2013-02-18 15:24:00,35.1,1.0,29.98,NE,52,5.0,14.0,23,0.00,,---,0.01,VWS V14.01,2013-02-18 22:24:00,
2013-02-18 15:29:00,35.2,2.0,29.98,NNE,25,5.0,20.0,24,0.00,,---,0.01,VWS V14.01,2013-02-18 22:29:00,
2013-02-18 15:34:00,35.2,1.1,29.98,NNW,345,2.0,14.0,23,0.00,,---,0.01,VWS V14.01,2013-02-18 22:34:00,
2013-02-18 15:39:00,34.9,1.8,29.98,NNW,346,10.0,20.0,24,0.00,,---,0.01,VWS V14.01,2013-02-18 22:39:00,
2013-02-18 15:44:00,35.4,3.1,29.98,NNW,336,2.0,13.0,25,0.00,,---,0.01,VWS V14.01,2013-02-18 22:44:00,
2013-02-18 15:49:00,36.1,1.9,29.96,NNW,337,1.0,13.0,23,0.00,,---,0.01,VWS V14.01,2013-02-18 22:49:00,
2013-02-18 15:54:00,35.9,1.7,29.96,WNW,296,9.0,16.0,23,0.00,,---,0.01,VWS V14.01,2013-02-18 22:54:00,
2013-02-18 15:59:00,35.5,1.4,29.97,NE,38,1.0,15.0,23,0.00,,---,0.01,VWS V14.01,2013-02-18 22:59:00,
2013-02-18 16:04:00,36.1,3.7,29.97,NW,310,8.0,12.0,25,0.00,,---,0.01,VWS V14.01,2013-02-18 23:04:00,
2013-02-18 16:09:00,35.9,1.7,29.99,NNW,332,8.0,14.0,23,0.00,,---,0.01,VWS V14.01,2013-02-18 23:09:00,
2013-02-18 16:15:00,35.8,1.6,29.99,NNE,24,0.0,5.0,23,0.00,,---,0.01,VWS V14.01,2013-02-18 23:15:00,
2013-02-18 16:20:00,35.8,1.6,29.99,NE,44,3.0,12.0,23,0.00,,---,0.01,VWS V14.01,2013-02-18 23:20:00,
2013-02-18 16:25:00,35.8,1.6,29.99,NE,44,1.0,11.0,23,0.00,,---,0.01,VWS V14.01,2013-02-18 23:25:00,
2013-02-18 16:30:00,36.1,1.9,29.99,NNW,342,1.0,5.0,23,0.00,,---,0.01,VWS V14.01,2013-02-18 23:30:00,
2013-02-18 16:35:00,36.4,2.2,30.00,NE,36,1.0,6.0,23,0.00,,---,0.01,VWS V14.01,2013-02-18 23:35:00,
2013-02-18 16:40:00,36.2,2.0,30.00,NNE,26,0.0,8.0,23,0.00,,---,0.01,VWS V14.01,2013-02-18 23:40:00,
2013-02-18 16:45:00,36.0,1.8,30.00,NNW,337,0.0,10.0,23,0.00,,---,0.01,VWS V14.01,2013-02-18 23:45:00,
2013-02-18 16:50:00,36.1,1.9,30.00,NNE,16,5.0,5.0,23,0.00,,---,0.01,VWS V14.01,2013-02-18 23:50:00,
2013-02-18 16:55:00,35.2,1.1,30.00,ENE,64,7.0,10.0,23,0.00,,---,0.01,VWS V14.01,2013-02-18 23:55:00,
2013-02-18 17:00:00,34.8,0.8,30.00,ENE,59,5.0,8.0,23,0.00,,---,0.01,VWS V14.01,2013-02-19 00:00:00,
2013-02-18 17:05:00,35.0,1.9,30.01,NE,56,0.0,4.0,24,0.00,,---,0.01,VWS V14.01,2013-02-19 00:05:00,
2013-02-18 17:10:00,35.2,2.0,30.03,North,355,0.0,6.0,24,0.00,,---,0.01,VWS V14.01,2013-02-19 00:10:00,
2013-02-18 17:15:00,35.2,2.0,30.03,North,355,1.0,1.0,24,0.00,,---,0.01,VWS V14.01,2013-02-19 00:15:00,
2013-02-18 17:20:00,34.4,2.2,30.03,North,355,0.0,6.0,25,0.00,,---,0.01,VWS V14.01,2013-02-19 00:20:00,
2013-02-18 17:25:00,33.5,2.3,30.03,NNW,327,4.0,5.0,26,0.00,,---,0.01,VWS V14.01,2013-02-19 00:25:00,
2013-02-18 17:30:00,32.9,2.6,30.05,NW,326,0.0,4.0,27,0.00,,---,0.01,VWS V14.01,2013-02-19 00:30:00,
2013-02-18 17:35:00,32.6,2.3,30.05,WNW,302,4.0,5.0,27,0.00,,---,0.01,VWS V14.01,2013-02-19 00:35:00,
2013-02-18 17:40:00,32.5,1.4,30.06,WNW,302,1.0,4.0,26,0.00,,---,0.01,VWS V14.01,2013-02-19 00:40:00,
2013-02-18 17:45:00,32.3,2.9,30.06,WNW,302,0.0,1.0,28,0.00,,---,0.01,VWS V14.01,2013-02-19 00:45:00,
2013-02-18 17:50:00,31.7,3.1,30.06,WNW,302,0.0,0.0,29,0.00,,---,0.01,VWS V14.01,2013-02-19 00:50:00,
2013-02-18 17:55:00,31.0,0.9,30.08,WNW,302,0.0,2.0,27,0.00,,---,0.01,VWS V14.01,2013-02-19 00:55:00,
2013-02-18 18:00:00,31.0,0.9,30.08,WNW,302,0.0,2.0,27,0.00,,---,0.01,VWS V14.01,2013-02-19 01:00:00,
2013-02-18 18:05:00,31.0,3.2,30.08,WNW,302,0.0,0.0,30,0.00,,---,0.01,VWS V14.01,2013-02-19 01:05:00,
2013-02-18 18:10:00,30.6,3.6,30.09,WNW,302,0.0,0.0,31,0.00,,---,0.01,VWS V14.01,2013-02-19 01:10:00,
2013-02-18 18:15:00,29.9,3.6,30.11,WNW,302,0.0,0.0,32,0.00,,---,0.01,VWS V14.01,2013-02-19 01:15:00,
2013-02-18 18:20:00,29.1,3.6,30.11,WNW,302,0.0,0.0,33,0.00,,---,0.01,VWS V14.01,2013-02-19 01:20:00,
2013-02-18 18:25:00,28.5,5.0,30.12,WNW,302,0.0,0.0,36,0.00,,---,0.01,VWS V14.01,2013-02-19 01:25:00,
2013-02-18 18:30:00,27.9,3.8,30.13,WNW,302,0.0,1.0,35,0.00,,---,0.01,VWS V14.01,2013-02-19 01:30:00,
2013-02-18 18:35:00,27.6,2.9,30.14,WNW,302,0.0,1.0,34,0.00,,---,0.01,VWS V14.01,2013-02-19 01:35:00,
2013-02-18 18:40:00,27.4,4.0,30.14,WNW,302,0.0,0.0,36,0.00,,---,0.01,VWS V14.01,2013-02-19 01:40:00,
2013-02-18 18:46:00,27.2,5.5,30.14,WNW,296,3.0,5.0,39,0.00,,---,0.01,VWS V14.01,2013-02-19 01:46:00,
2013-02-18 18:51:00,26.9,4.1,30.14,WNW,296,0.0,3.0,37,0.00,,---,0.01,VWS V14.01,2013-02-19 01:51:00,
2013-02-18 18:56:00,26.3,5.3,30.16,WNW,296,0.0,2.0,40,0.00,,---,0.01,VWS V14.01,2013-02-19 01:56:00,
2013-02-18 19:01:00,25.8,5.9,30.17,WNW,296,0.0,0.0,42,0.00,,---,0.01,VWS V14.01,2013-02-19 02:01:00,
2013-02-18 19:06:00,25.6,5.2,30.16,WNW,296,0.0,0.0,41,0.00,,---,0.01,VWS V14.01,2013-02-19 02:06:00,
2013-02-18 19:11:00,25.5,6.1,30.13,WNW,296,0.0,1.0,43,0.00,,---,0.01,VWS V14.01,2013-02-19 02:11:00,
2013-02-18 19:36:00,23.6,4.4,30.16,WNW,296,0.0,0.0,43,0.00,,---,0.01,VWS V14.01,2013-02-19 02:36:00,
2013-02-18 19:41:00,23.8,6.5,30.16,WNW,296,0.0,0.0,47,0.00,,---,0.01,VWS V14.01,2013-02-19 02:41:00,
2013-02-18 19:46:00,24.0,5.3,30.16,WNW,296,0.0,0.0,44,0.00,,---,0.01,VWS V14.01,2013-02-19 02:46:00,
2013-02-18 19:51:00,23.9,5.7,30.17,WNW,296,0.0,0.0,45,0.00,,---,0.01,VWS V14.01,2013-02-19 02:51:00,
2013-02-18 19:56:00,23.7,6.0,30.17,WNW,296,0.0,0.0,46,0.00,,---,0.01,VWS V14.01,2013-02-19 02:56:00,
2013-02-18 20:01:00,23.4,6.2,30.19,WNW,296,0.0,0.0,47,0.00,,---,0.01,VWS V14.01,2013-02-19 03:01:00,
2013-02-18 20:06:00,22.8,6.1,30.19,WNW,296,0.0,0.0,48,0.00,,---,0.01,VWS V14.01,2013-02-19 03:06:00,
2013-02-18 20:11:00,22.2,4.6,30.18,WNW,296,0.0,0.0,46,0.00,,---,0.01,VWS V14.01,2013-02-19 03:11:00,
2013-02-18 20:16:00,21.8,6.5,30.18,WNW,296,0.0,0.0,51,0.00,,---,0.01,VWS V14.01,2013-02-19 03:16:00,
2013-02-18 20:21:00,21.5,6.6,30.18,WNW,296,0.0,0.0,52,0.00,,---,0.01,VWS V14.01,2013-02-19 03:21:00,
2013-02-18 20:26:00,21.3,6.8,30.20,WNW,296,0.0,0.0,53,0.00,,---,0.01,VWS V14.01,2013-02-19 03:26:00,
2013-02-18 20:31:00,21.0,7.4,30.20,WNW,296,0.0,0.0,55,0.00,,---,0.01,VWS V14.01,2013-02-19 03:31:00,
2013-02-18 20:36:00,20.8,6.4,30.21,WNW,296,0.0,0.0,53,0.00,,---,0.01,VWS V14.01,2013-02-19 03:36:00,
2013-02-18 20:41:00,20.7,4.6,30.21,WNW,298,0.0,0.0,49,0.00,,---,0.01,VWS V14.01,2013-02-19 03:41:00,
2013-02-18 20:46:00,20.8,4.7,30.20,WNW,298,0.0,0.0,49,0.00,,---,0.01,VWS V14.01,2013-02-19 03:46:00,
2013-02-18 20:51:00,20.7,5.0,30.20,WNW,298,0.0,0.0,50,0.00,,---,0.01,VWS V14.01,2013-02-19 03:51:00,
2013-02-18 20:56:00,20.4,6.0,30.21,West,276,5.0,6.0,53,0.00,,---,0.01,VWS V14.01,2013-02-19 03:56:00,
2013-02-18 21:01:00,19.0,5.5,30.24,SW,224,0.0,0.0,55,0.00,,---,0.01,VWS V14.01,2013-02-19 04:01:00,
2013-02-18 21:06:00,18.4,4.9,30.22,SW,218,5.0,5.0,55,0.00,,---,0.01,VWS V14.01,2013-02-19 04:06:00,
2013-02-18 21:11:00,19.7,4.9,30.21,SW,218,0.0,1.0,52,0.00,,---,0.01,VWS V14.01,2013-02-19 04:11:00,
2013-02-18 21:17:00,19.9,5.1,30.21,SW,218,0.0,0.0,52,0.00,,---,0.01,VWS V14.01,2013-02-19 04:17:00,
2013-02-18 21:22:00,19.9,4.7,30.21,SW,218,0.0,0.0,51,0.00,,---,0.01,VWS V14.01,2013-02-19 04:22:00,
2013-02-18 21:27:00,19.9,4.3,30.21,SW,218,0.0,0.0,50,0.00,,---,0.01,VWS V14.01,2013-02-19 04:27:00,
2013-02-18 21:32:00,19.9,4.3,30.21,SW,218,0.0,0.0,50,0.00,,---,0.01,VWS V14.01,2013-02-19 04:32:00,